sensor_id;sensor_type;location;lat;lon;timestamp;temperature;humidity
14099;DHT22;7126;48.458;7.930;2022-12-01T00:01:08;7.90;99.90
14099;DHT22;7126;48.458;7.930;2022-12-01T00:03:34;7.80;99.90
14099;DHT22;7126;48.458;7.930;2022-12-01T00:06:14;7.80;99.90
14099;DHT22;7126;48.458;7.930;2022-12-01T00:08:41;7.80;99.90
14099;DHT22;7126;48.458;7.930;2022-12-01T00:11:30;7.80;99.90
14099;DHT22;7126;48.458;7.930;2022-12-01T00:13:55;7.90;99.90
14099;DHT22;7126;48.458;7.930;2022-12-01T00:16:21;7.80;99.90
14099;DHT22;7126;48.458;7.930;2022-12-01T00:18:51;7.80;99.90
14099;DHT22;7126;48.458;7.930;2022-12-01T00:21:19;7.80;99.90
14099;DHT22;7126;48.458;7.930;2022-12-01T00:23:46;7.70;99.90
14099;DHT22;7126;48.458;7.930;2022-12-01T00:26:12;7.70;99.90
14099;DHT22;7126;48.458;7.930;2022-12-01T00:28:38;7.70;99.90
14099;DHT22;7126;48.458;7.930;2022-12-01T00:31:11;7.70;99.90
14099;DHT22;7126;48.458;7.930;2022-12-01T00:33:37;7.60;99.90
14099;DHT22;7126;48.458;7.930;2022-12-01T00:36:03;7.60;99.90
14099;DHT22;7126;48.458;7.930;2022-12-01T00:38:29;7.70;99.90
14099;DHT22;7126;48.458;7.930;2022-12-01T00:40:55;7.70;99.90
14099;DHT22;7126;48.458;7.930;2022-12-01T00:43:21;7.60;99.90
14099;DHT22;7126;48.458;7.930;2022-12-01T00:45:46;7.50;99.90
14099;DHT22;7126;48.458;7.930;2022-12-01T00:48:12;7.50;99.90
14099;DHT22;7126;48.458;7.930;2022-12-01T00:50:38;7.50;99.90
14099;DHT22;7126;48.458;7.930;2022-12-01T00:53:03;7.40;99.90
14099;DHT22;7126;48.458;7.930;2022-12-01T00:55:29;7.40;99.90
14099;DHT22;7126;48.458;7.930;2022-12-01T00:57:54;7.50;99.90
14099;DHT22;7126;48.458;7.930;2022-12-01T01:00:20;7.50;99.90
14099;DHT22;7126;48.458;7.930;2022-12-01T01:02:45;7.50;99.90
14099;DHT22;7126;48.458;7.930;2022-12-01T01:05:11;7.50;99.90
14099;DHT22;7126;48.458;7.930;2022-12-01T01:07:37;7.50;99.90
14099;DHT22;7126;48.458;7.930;2022-12-01T01:10:03;7.50;99.90
14099;DHT22;7126;48.458;7.930;2022-12-01T01:12:28;7.50;99.90
14099;DHT22;7126;48.458;7.930;2022-12-01T01:14:54;7.50;99.90
14099;DHT22;7126;48.458;7.930;2022-12-01T01:17:19;7.50;99.90
14099;DHT22;7126;48.458;7.930;2022-12-01T01:19:45;7.50;99.90
14099;DHT22;7126;48.458;7.930;2022-12-01T01:22:11;7.50;99.90
14099;DHT22;7126;48.458;7.930;2022-12-01T01:24:36;7.50;99.90
14099;DHT22;7126;48.458;7.930;2022-12-01T01:27:03;7.50;99.90
14099;DHT22;7126;48.458;7.930;2022-12-01T01:29:30;7.50;99.90
14099;DHT22;7126;48.458;7.930;2022-12-01T01:31:56;7.50;99.90
14099;DHT22;7126;48.458;7.930;2022-12-01T01:34:22;7.40;99.90
14099;DHT22;7126;48.458;7.930;2022-12-01T01:36:47;7.40;99.90
14099;DHT22;7126;48.458;7.930;2022-12-01T01:39:13;7.40;99.90
14099;DHT22;7126;48.458;7.930;2022-12-01T01:41:38;7.30;99.90
14099;DHT22;7126;48.458;7.930;2022-12-01T01:47:08;7.20;99.90
14099;DHT22;7126;48.458;7.930;2022-12-01T01:49:34;7.20;99.90
14099;DHT22;7126;48.458;7.930;2022-12-01T01:52:02;7.20;99.90
14099;DHT22;7126;48.458;7.930;2022-12-01T01:54:40;7.10;99.90
14099;DHT22;7126;48.458;7.930;2022-12-01T01:57:08;7.10;99.90
14099;DHT22;7126;48.458;7.930;2022-12-01T01:59:42;7.00;99.90
14099;DHT22;7126;48.458;7.930;2022-12-01T02:02:09;6.90;99.90
14099;DHT22;7126;48.458;7.930;2022-12-01T02:04:44;7.00;99.90
14099;DHT22;7126;48.458;7.930;2022-12-01T02:07:11;7.00;99.90
14099;DHT22;7126;48.458;7.930;2022-12-01T02:09:39;7.00;99.90
14099;DHT22;7126;48.458;7.930;2022-12-01T02:17:43;7.10;99.90
14099;DHT22;7126;48.458;7.930;2022-12-01T02:20:21;7.00;99.90
14099;DHT22;7126;48.458;7.930;2022-12-01T02:25:53;6.90;99.90
14099;DHT22;7126;48.458;7.930;2022-12-01T02:31:26;6.80;99.90
14099;DHT22;7126;48.458;7.930;2022-12-01T02:34:32;6.80;99.90
14099;DHT22;7126;48.458;7.930;2022-12-01T02:37:12;6.80;99.90
14099;DHT22;7126;48.458;7.930;2022-12-01T02:39:54;6.80;99.90
14099;DHT22;7126;48.458;7.930;2022-12-01T02:48:00;6.90;99.90
14099;DHT22;7126;48.458;7.930;2022-12-01T02:50:29;6.90;99.90
14099;DHT22;7126;48.458;7.930;2022-12-01T02:52:56;7.00;99.90
14099;DHT22;7126;48.458;7.930;2022-12-01T02:55:21;7.00;99.90
14099;DHT22;7126;48.458;7.930;2022-12-01T02:57:47;7.00;99.90
14099;DHT22;7126;48.458;7.930;2022-12-01T03:00:14;6.90;99.90
14099;DHT22;7126;48.458;7.930;2022-12-01T03:06:22;6.90;99.90
14099;DHT22;7126;48.458;7.930;2022-12-01T03:08:49;6.90;99.90
14099;DHT22;7126;48.458;7.930;2022-12-01T03:11:22;6.80;99.90
14099;DHT22;7126;48.458;7.930;2022-12-01T03:16:35;6.80;99.90
14099;DHT22;7126;48.458;7.930;2022-12-01T03:19:11;6.90;99.90
14099;DHT22;7126;48.458;7.930;2022-12-01T03:21:43;6.90;99.90
14099;DHT22;7126;48.458;7.930;2022-12-01T03:24:19;6.80;99.90
14099;DHT22;7126;48.458;7.930;2022-12-01T03:26:49;6.80;99.90
14099;DHT22;7126;48.458;7.930;2022-12-01T03:29:21;6.80;99.90
14099;DHT22;7126;48.458;7.930;2022-12-01T03:32:03;6.80;99.90
14099;DHT22;7126;48.458;7.930;2022-12-01T03:34:50;6.70;99.90
14099;DHT22;7126;48.458;7.930;2022-12-01T03:40:25;6.70;99.90
14099;DHT22;7126;48.458;7.930;2022-12-01T03:43:04;6.70;99.90
14099;DHT22;7126;48.458;7.930;2022-12-01T03:48:18;6.70;99.90
14099;DHT22;7126;48.458;7.930;2022-12-01T03:56:18;6.70;99.90
14099;DHT22;7126;48.458;7.930;2022-12-01T03:58:46;6.80;99.90
14099;DHT22;7126;48.458;7.930;2022-12-01T04:01:13;6.80;99.90
14099;DHT22;7126;48.458;7.930;2022-12-01T04:03:39;6.80;99.90
14099;DHT22;7126;48.458;7.930;2022-12-01T04:06:05;6.80;99.90
14099;DHT22;7126;48.458;7.930;2022-12-01T04:08:31;6.70;99.90
14099;DHT22;7126;48.458;7.930;2022-12-01T04:10:58;6.70;99.90
14099;DHT22;7126;48.458;7.930;2022-12-01T04:13:24;6.60;99.90
14099;DHT22;7126;48.458;7.930;2022-12-01T04:15:54;6.60;99.90
14099;DHT22;7126;48.458;7.930;2022-12-01T04:18:20;6.60;99.90
14099;DHT22;7126;48.458;7.930;2022-12-01T04:20:47;6.60;99.90
14099;DHT22;7126;48.458;7.930;2022-12-01T04:23:13;6.60;99.90
14099;DHT22;7126;48.458;7.930;2022-12-01T04:25:59;6.50;99.90
14099;DHT22;7126;48.458;7.930;2022-12-01T04:28:25;6.60;99.90
14099;DHT22;7126;48.458;7.930;2022-12-01T04:30:51;6.60;99.90
14099;DHT22;7126;48.458;7.930;2022-12-01T04:33:16;6.60;99.90
14099;DHT22;7126;48.458;7.930;2022-12-01T04:35:42;6.60;99.90
14099;DHT22;7126;48.458;7.930;2022-12-01T04:38:07;6.60;99.90
14099;DHT22;7126;48.458;7.930;2022-12-01T04:40:33;6.60;99.90
14099;DHT22;7126;48.458;7.930;2022-12-01T04:42:59;6.60;99.90
14099;DHT22;7126;48.458;7.930;2022-12-01T04:45:24;6.50;99.90
14099;DHT22;7126;48.458;7.930;2022-12-01T04:47:51;6.50;99.90
14099;DHT22;7126;48.458;7.930;2022-12-01T04:50:17;6.50;99.90
14099;DHT22;7126;48.458;7.930;2022-12-01T04:52:43;6.50;99.90
14099;DHT22;7126;48.458;7.930;2022-12-01T04:55:09;6.50;99.90
14099;DHT22;7126;48.458;7.930;2022-12-01T04:57:34;6.50;99.90
14099;DHT22;7126;48.458;7.930;2022-12-01T05:00:00;6.50;99.90
14099;DHT22;7126;48.458;7.930;2022-12-01T05:02:26;6.40;99.90
14099;DHT22;7126;48.458;7.930;2022-12-01T05:04:51;6.40;99.90
14099;DHT22;7126;48.458;7.930;2022-12-01T05:07:17;6.40;99.90
14099;DHT22;7126;48.458;7.930;2022-12-01T05:09:42;6.40;99.90
14099;DHT22;7126;48.458;7.930;2022-12-01T05:12:08;6.40;99.90
14099;DHT22;7126;48.458;7.930;2022-12-01T05:14:33;6.50;99.90
14099;DHT22;7126;48.458;7.930;2022-12-01T05:16:59;6.50;99.90
14099;DHT22;7126;48.458;7.930;2022-12-01T05:19:25;6.50;99.90
14099;DHT22;7126;48.458;7.930;2022-12-01T05:22:09;6.60;99.90
14099;DHT22;7126;48.458;7.930;2022-12-01T05:24:35;6.60;99.90
14099;DHT22;7126;48.458;7.930;2022-12-01T05:27:00;6.60;99.90
14099;DHT22;7126;48.458;7.930;2022-12-01T05:29:26;6.50;99.90
14099;DHT22;7126;48.458;7.930;2022-12-01T05:31:51;6.50;99.90
14099;DHT22;7126;48.458;7.930;2022-12-01T05:34:17;6.50;99.90
14099;DHT22;7126;48.458;7.930;2022-12-01T05:36:42;6.50;99.90
14099;DHT22;7126;48.458;7.930;2022-12-01T05:39:08;6.50;99.90
14099;DHT22;7126;48.458;7.930;2022-12-01T05:41:33;6.50;99.90
14099;DHT22;7126;48.458;7.930;2022-12-01T05:43:59;6.50;99.90
14099;DHT22;7126;48.458;7.930;2022-12-01T05:46:24;6.50;99.90
14099;DHT22;7126;48.458;7.930;2022-12-01T05:48:50;6.40;99.90
14099;DHT22;7126;48.458;7.930;2022-12-01T05:51:16;6.40;99.90
14099;DHT22;7126;48.458;7.930;2022-12-01T05:53:42;6.40;99.90
14099;DHT22;7126;48.458;7.930;2022-12-01T05:56:08;6.50;99.90
14099;DHT22;7126;48.458;7.930;2022-12-01T05:58:34;6.40;99.90
14099;DHT22;7126;48.458;7.930;2022-12-01T06:01:00;6.40;99.90
14099;DHT22;7126;48.458;7.930;2022-12-01T06:03:25;6.40;99.90
14099;DHT22;7126;48.458;7.930;2022-12-01T06:05:51;6.30;99.90
14099;DHT22;7126;48.458;7.930;2022-12-01T06:08:17;6.40;99.90
14099;DHT22;7126;48.458;7.930;2022-12-01T06:10:43;6.30;99.90
14099;DHT22;7126;48.458;7.930;2022-12-01T06:13:09;6.30;99.90
14099;DHT22;7126;48.458;7.930;2022-12-01T06:15:35;6.30;99.90
14099;DHT22;7126;48.458;7.930;2022-12-01T06:18:00;6.30;99.90
14099;DHT22;7126;48.458;7.930;2022-12-01T06:20:26;6.30;99.90
14099;DHT22;7126;48.458;7.930;2022-12-01T06:22:52;6.30;99.90
14099;DHT22;7126;48.458;7.930;2022-12-01T06:25:18;6.40;99.90
14099;DHT22;7126;48.458;7.930;2022-12-01T06:27:43;6.30;99.90
14099;DHT22;7126;48.458;7.930;2022-12-01T06:30:10;6.30;99.90
14099;DHT22;7126;48.458;7.930;2022-12-01T06:32:36;6.30;99.90
14099;DHT22;7126;48.458;7.930;2022-12-01T06:35:02;6.20;99.90
14099;DHT22;7126;48.458;7.930;2022-12-01T06:37:27;6.20;99.90
14099;DHT22;7126;48.458;7.930;2022-12-01T06:39:53;6.30;99.90
14099;DHT22;7126;48.458;7.930;2022-12-01T06:42:18;6.30;99.90
14099;DHT22;7126;48.458;7.930;2022-12-01T06:44:44;6.30;99.90
14099;DHT22;7126;48.458;7.930;2022-12-01T06:47:10;6.30;99.90
14099;DHT22;7126;48.458;7.930;2022-12-01T06:49:36;6.30;99.90
14099;DHT22;7126;48.458;7.930;2022-12-01T06:52:02;6.20;99.90
14099;DHT22;7126;48.458;7.930;2022-12-01T06:54:28;6.20;99.90
14099;DHT22;7126;48.458;7.930;2022-12-01T06:56:53;6.20;99.90
14099;DHT22;7126;48.458;7.930;2022-12-01T06:59:19;6.20;99.90
14099;DHT22;7126;48.458;7.930;2022-12-01T07:01:44;6.20;99.90
14099;DHT22;7126;48.458;7.930;2022-12-01T07:04:10;6.20;99.90
14099;DHT22;7126;48.458;7.930;2022-12-01T07:06:36;6.20;99.90
14099;DHT22;7126;48.458;7.930;2022-12-01T07:09:01;6.20;99.90
14099;DHT22;7126;48.458;7.930;2022-12-01T07:11:27;6.20;99.90
14099;DHT22;7126;48.458;7.930;2022-12-01T07:13:55;6.30;99.90
14099;DHT22;7126;48.458;7.930;2022-12-01T07:16:21;6.20;99.90
14099;DHT22;7126;48.458;7.930;2022-12-01T07:18:47;6.20;99.90
14099;DHT22;7126;48.458;7.930;2022-12-01T07:21:14;6.30;99.90
14099;DHT22;7126;48.458;7.930;2022-12-01T07:23:40;6.20;99.90
14099;DHT22;7126;48.458;7.930;2022-12-01T07:26:14;6.30;99.90
14099;DHT22;7126;48.458;7.930;2022-12-01T07:28:40;6.20;99.90
14099;DHT22;7126;48.458;7.930;2022-12-01T07:31:10;6.20;99.90
14099;DHT22;7126;48.458;7.930;2022-12-01T07:33:36;6.20;99.90
14099;DHT22;7126;48.458;7.930;2022-12-01T07:36:02;6.20;99.90
14099;DHT22;7126;48.458;7.930;2022-12-01T07:38:29;6.30;99.90
14099;DHT22;7126;48.458;7.930;2022-12-01T07:40:54;6.30;99.90
14099;DHT22;7126;48.458;7.930;2022-12-01T07:43:25;6.30;99.90
14099;DHT22;7126;48.458;7.930;2022-12-01T07:45:50;6.30;99.90
14099;DHT22;7126;48.458;7.930;2022-12-01T07:48:16;6.30;99.90
14099;DHT22;7126;48.458;7.930;2022-12-01T07:50:41;6.30;99.90
14099;DHT22;7126;48.458;7.930;2022-12-01T07:53:07;6.30;99.90
14099;DHT22;7126;48.458;7.930;2022-12-01T07:55:32;6.20;99.90
14099;DHT22;7126;48.458;7.930;2022-12-01T07:57:59;6.20;99.90
14099;DHT22;7126;48.458;7.930;2022-12-01T08:00:25;6.20;99.90
14099;DHT22;7126;48.458;7.930;2022-12-01T08:02:51;6.20;99.90
14099;DHT22;7126;48.458;7.930;2022-12-01T08:05:16;6.30;99.90
14099;DHT22;7126;48.458;7.930;2022-12-01T08:07:42;6.20;99.90
14099;DHT22;7126;48.458;7.930;2022-12-01T08:10:08;6.30;99.90
14099;DHT22;7126;48.458;7.930;2022-12-01T08:12:33;6.30;99.90
14099;DHT22;7126;48.458;7.930;2022-12-01T08:14:59;6.30;99.90
14099;DHT22;7126;48.458;7.930;2022-12-01T08:17:24;6.30;99.90
14099;DHT22;7126;48.458;7.930;2022-12-01T08:19:50;6.30;99.90
14099;DHT22;7126;48.458;7.930;2022-12-01T08:22:16;6.30;99.90
14099;DHT22;7126;48.458;7.930;2022-12-01T08:24:41;6.30;99.90
14099;DHT22;7126;48.458;7.930;2022-12-01T08:27:07;6.30;99.90
14099;DHT22;7126;48.458;7.930;2022-12-01T08:29:34;6.30;99.90
14099;DHT22;7126;48.458;7.930;2022-12-01T08:31:59;6.30;99.90
14099;DHT22;7126;48.458;7.930;2022-12-01T08:34:25;6.30;99.90
14099;DHT22;7126;48.458;7.930;2022-12-01T08:36:51;6.20;99.90
14099;DHT22;7126;48.458;7.930;2022-12-01T08:39:16;6.30;99.90
14099;DHT22;7126;48.458;7.930;2022-12-01T08:41:42;6.30;99.90
14099;DHT22;7126;48.458;7.930;2022-12-01T08:44:09;6.30;99.90
14099;DHT22;7126;48.458;7.930;2022-12-01T08:46:35;6.40;99.90
14099;DHT22;7126;48.458;7.930;2022-12-01T08:49:03;6.40;99.90
14099;DHT22;7126;48.458;7.930;2022-12-01T08:51:29;6.40;99.90
14099;DHT22;7126;48.458;7.930;2022-12-01T08:53:56;6.40;99.90
14099;DHT22;7126;48.458;7.930;2022-12-01T08:56:28;6.50;99.90
14099;DHT22;7126;48.458;7.930;2022-12-01T08:58:54;6.50;99.90
14099;DHT22;7126;48.458;7.930;2022-12-01T09:01:20;6.50;99.90
14099;DHT22;7126;48.458;7.930;2022-12-01T09:03:45;6.40;99.90
14099;DHT22;7126;48.458;7.930;2022-12-01T09:06:15;6.50;99.90
14099;DHT22;7126;48.458;7.930;2022-12-01T09:08:42;6.50;99.90
14099;DHT22;7126;48.458;7.930;2022-12-01T09:11:13;6.50;99.90
14099;DHT22;7126;48.458;7.930;2022-12-01T09:13:39;6.40;99.90
14099;DHT22;7126;48.458;7.930;2022-12-01T09:16:16;6.40;99.90
14099;DHT22;7126;48.458;7.930;2022-12-01T09:18:45;6.40;99.90
14099;DHT22;7126;48.458;7.930;2022-12-01T09:21:14;6.40;99.90
14099;DHT22;7126;48.458;7.930;2022-12-01T09:23:40;6.40;99.90
14099;DHT22;7126;48.458;7.930;2022-12-01T09:26:06;6.30;99.90
14099;DHT22;7126;48.458;7.930;2022-12-01T09:28:32;6.40;99.90
14099;DHT22;7126;48.458;7.930;2022-12-01T09:31:06;6.40;99.90
14099;DHT22;7126;48.458;7.930;2022-12-01T09:33:32;6.40;99.90
14099;DHT22;7126;48.458;7.930;2022-12-01T09:35:59;6.40;99.90
14099;DHT22;7126;48.458;7.930;2022-12-01T09:38:25;6.40;99.90
14099;DHT22;7126;48.458;7.930;2022-12-01T09:40:51;6.50;99.90
14099;DHT22;7126;48.458;7.930;2022-12-01T09:43:38;6.50;99.90
14099;DHT22;7126;48.458;7.930;2022-12-01T09:46:07;6.50;99.90
14099;DHT22;7126;48.458;7.930;2022-12-01T09:48:43;6.50;99.90
14099;DHT22;7126;48.458;7.930;2022-12-01T09:51:14;6.50;99.90
14099;DHT22;7126;48.458;7.930;2022-12-01T09:53:40;6.50;99.90
14099;DHT22;7126;48.458;7.930;2022-12-01T09:56:19;6.50;99.90
14099;DHT22;7126;48.458;7.930;2022-12-01T09:58:54;6.50;99.90
14099;DHT22;7126;48.458;7.930;2022-12-01T10:01:53;6.50;99.90
14099;DHT22;7126;48.458;7.930;2022-12-01T10:04:27;6.50;99.90
14099;DHT22;7126;48.458;7.930;2022-12-01T10:07:04;6.50;99.90
14099;DHT22;7126;48.458;7.930;2022-12-01T10:10:03;6.60;99.90
14099;DHT22;7126;48.458;7.930;2022-12-01T10:12:31;6.60;99.90
14099;DHT22;7126;48.458;7.930;2022-12-01T10:18:06;6.60;99.90
14099;DHT22;7126;48.458;7.930;2022-12-01T10:20:58;6.60;99.90
14099;DHT22;7126;48.458;7.930;2022-12-01T10:26:20;6.60;99.90
14099;DHT22;7126;48.458;7.930;2022-12-01T10:31:53;6.70;99.90
14099;DHT22;7126;48.458;7.930;2022-12-01T10:34:33;6.70;99.90
14099;DHT22;7126;48.458;7.930;2022-12-01T10:37:00;6.70;99.90
14099;DHT22;7126;48.458;7.930;2022-12-01T10:39:38;6.80;99.90
14099;DHT22;7126;48.458;7.930;2022-12-01T10:44:40;6.60;99.90
14099;DHT22;7126;48.458;7.930;2022-12-01T10:47:23;6.60;99.90
14099;DHT22;7126;48.458;7.930;2022-12-01T10:49:50;6.70;99.90
14099;DHT22;7126;48.458;7.930;2022-12-01T10:52:34;6.70;99.90
14099;DHT22;7126;48.458;7.930;2022-12-01T10:55:02;6.70;99.90
14099;DHT22;7126;48.458;7.930;2022-12-01T10:57:29;6.70;99.90
14099;DHT22;7126;48.458;7.930;2022-12-01T11:00:06;6.60;99.90
14099;DHT22;7126;48.458;7.930;2022-12-01T11:02:34;6.60;99.90
14099;DHT22;7126;48.458;7.930;2022-12-01T11:05:21;6.70;99.90
14099;DHT22;7126;48.458;7.930;2022-12-01T11:07:48;6.70;99.90
14099;DHT22;7126;48.458;7.930;2022-12-01T11:12:45;6.60;99.90
14099;DHT22;7126;48.458;7.930;2022-12-01T11:15:22;6.70;99.90
14099;DHT22;7126;48.458;7.930;2022-12-01T11:17:56;6.80;99.90
14099;DHT22;7126;48.458;7.930;2022-12-01T11:23:20;6.90;99.90
14099;DHT22;7126;48.458;7.930;2022-12-01T11:28:21;6.90;99.90
14099;DHT22;7126;48.458;7.930;2022-12-01T11:31:04;6.90;99.90
14099;DHT22;7126;48.458;7.930;2022-12-01T11:33:36;7.00;99.90
14099;DHT22;7126;48.458;7.930;2022-12-01T11:36:04;7.00;99.90
14099;DHT22;7126;48.458;7.930;2022-12-01T11:38:31;7.00;99.90
14099;DHT22;7126;48.458;7.930;2022-12-01T11:40:58;7.00;99.90
14099;DHT22;7126;48.458;7.930;2022-12-01T11:43:35;7.00;99.90
14099;DHT22;7126;48.458;7.930;2022-12-01T11:46:04;7.00;99.90
14099;DHT22;7126;48.458;7.930;2022-12-01T11:48:32;6.90;99.90
14099;DHT22;7126;48.458;7.930;2022-12-01T11:51:06;6.90;99.90
14099;DHT22;7126;48.458;7.930;2022-12-01T11:53:40;6.90;99.90
14099;DHT22;7126;48.458;7.930;2022-12-01T11:56:17;6.90;99.90
14099;DHT22;7126;48.458;7.930;2022-12-01T11:58:46;6.90;99.90
14099;DHT22;7126;48.458;7.930;2022-12-01T12:04:36;6.90;99.90
14099;DHT22;7126;48.458;7.930;2022-12-01T12:07:12;6.90;99.90
14099;DHT22;7126;48.458;7.930;2022-12-01T12:26:17;6.90;99.90
14099;DHT22;7126;48.458;7.930;2022-12-01T12:48:15;6.80;99.90
14099;DHT22;7126;48.458;7.930;2022-12-01T12:50:51;6.90;99.90
14099;DHT22;7126;48.458;7.930;2022-12-01T12:53:24;6.90;99.90
14099;DHT22;7126;48.458;7.930;2022-12-01T12:56:02;6.90;99.90
14099;DHT22;7126;48.458;7.930;2022-12-01T12:58:42;6.90;99.90
14099;DHT22;7126;48.458;7.930;2022-12-01T13:01:19;6.80;99.90
14099;DHT22;7126;48.458;7.930;2022-12-01T13:03:54;6.90;99.90
14099;DHT22;7126;48.458;7.930;2022-12-01T13:06:44;6.80;99.90
14099;DHT22;7126;48.458;7.930;2022-12-01T13:09:25;6.80;99.90
14099;DHT22;7126;48.458;7.930;2022-12-01T13:12:11;6.80;99.90
14099;DHT22;7126;48.458;7.930;2022-12-01T13:14:52;6.90;99.90
14099;DHT22;7126;48.458;7.930;2022-12-01T13:17:32;6.90;99.90
14099;DHT22;7126;48.458;7.930;2022-12-01T13:19:59;6.90;99.90
14099;DHT22;7126;48.458;7.930;2022-12-01T13:22:34;6.90;99.90
14099;DHT22;7126;48.458;7.930;2022-12-01T13:25:02;6.90;99.90
14099;DHT22;7126;48.458;7.930;2022-12-01T13:27:33;6.90;99.90
14099;DHT22;7126;48.458;7.930;2022-12-01T13:30:00;6.90;99.90
14099;DHT22;7126;48.458;7.930;2022-12-01T13:32:37;6.90;99.90
14099;DHT22;7126;48.458;7.930;2022-12-01T13:37:48;7.00;99.90
14099;DHT22;7126;48.458;7.930;2022-12-01T13:40:29;7.10;99.90
14099;DHT22;7126;48.458;7.930;2022-12-01T13:43:01;7.00;99.90
14099;DHT22;7126;48.458;7.930;2022-12-01T13:45:35;7.00;99.90
14099;DHT22;7126;48.458;7.930;2022-12-01T13:48:03;7.00;99.90
14099;DHT22;7126;48.458;7.930;2022-12-01T13:53:23;7.00;99.90
14099;DHT22;7126;48.458;7.930;2022-12-01T13:58:48;7.00;99.90
14099;DHT22;7126;48.458;7.930;2022-12-01T14:06:26;6.90;99.90
14099;DHT22;7126;48.458;7.930;2022-12-01T14:08:58;6.90;99.90
14099;DHT22;7126;48.458;7.930;2022-12-01T14:11:27;6.80;99.90
14099;DHT22;7126;48.458;7.930;2022-12-01T14:14:01;6.80;99.90
14099;DHT22;7126;48.458;7.930;2022-12-01T14:16:51;6.80;99.90
14099;DHT22;7126;48.458;7.930;2022-12-01T14:19:38;6.80;99.90
14099;DHT22;7126;48.458;7.930;2022-12-01T14:22:30;6.70;99.90
14099;DHT22;7126;48.458;7.930;2022-12-01T14:24:56;6.80;99.90
14099;DHT22;7126;48.458;7.930;2022-12-01T14:41:48;6.80;99.90
14099;DHT22;7126;48.458;7.930;2022-12-01T14:47:14;6.80;99.90
14099;DHT22;7126;48.458;7.930;2022-12-01T14:54:53;6.70;99.90
14099;DHT22;7126;48.458;7.930;2022-12-01T14:57:26;6.70;99.90
14099;DHT22;7126;48.458;7.930;2022-12-01T15:00:07;6.70;99.90
14099;DHT22;7126;48.458;7.930;2022-12-01T15:02:40;6.60;99.90
14099;DHT22;7126;48.458;7.930;2022-12-01T15:05:17;6.60;99.90
14099;DHT22;7126;48.458;7.930;2022-12-01T15:07:46;6.60;99.90
14099;DHT22;7126;48.458;7.930;2022-12-01T15:12:52;6.60;99.90
14099;DHT22;7126;48.458;7.930;2022-12-01T15:15:21;6.60;99.90
14099;DHT22;7126;48.458;7.930;2022-12-01T15:17:47;6.60;99.90
14099;DHT22;7126;48.458;7.930;2022-12-01T15:20:35;6.50;99.90
14099;DHT22;7126;48.458;7.930;2022-12-01T15:23:07;6.60;99.90
14099;DHT22;7126;48.458;7.930;2022-12-01T15:25:36;6.60;99.90
14099;DHT22;7126;48.458;7.930;2022-12-01T15:28:14;6.50;99.90
14099;DHT22;7126;48.458;7.930;2022-12-01T15:30:41;6.60;99.90
14099;DHT22;7126;48.458;7.930;2022-12-01T15:33:14;6.50;99.90
14099;DHT22;7126;48.458;7.930;2022-12-01T15:35:42;6.50;99.90
14099;DHT22;7126;48.458;7.930;2022-12-01T15:38:14;6.50;99.90
14099;DHT22;7126;48.458;7.930;2022-12-01T15:40:46;6.50;99.90
14099;DHT22;7126;48.458;7.930;2022-12-01T15:45:55;6.50;99.90
14099;DHT22;7126;48.458;7.930;2022-12-01T15:48:30;6.50;99.90
14099;DHT22;7126;48.458;7.930;2022-12-01T15:53:33;6.50;99.90
14099;DHT22;7126;48.458;7.930;2022-12-01T15:56:03;6.50;99.90
14099;DHT22;7126;48.458;7.930;2022-12-01T15:58:32;6.50;99.90
14099;DHT22;7126;48.458;7.930;2022-12-01T16:01:04;6.50;99.90
14099;DHT22;7126;48.458;7.930;2022-12-01T16:03:32;6.50;99.90
14099;DHT22;7126;48.458;7.930;2022-12-01T16:05:58;6.50;99.90
14099;DHT22;7126;48.458;7.930;2022-12-01T16:08:26;6.40;99.90
14099;DHT22;7126;48.458;7.930;2022-12-01T16:18:56;6.40;99.90
14099;DHT22;7126;48.458;7.930;2022-12-01T16:21:23;6.40;99.90
14099;DHT22;7126;48.458;7.930;2022-12-01T16:24:00;6.50;99.90
14099;DHT22;7126;48.458;7.930;2022-12-01T16:26:26;6.50;99.90
14099;DHT22;7126;48.458;7.930;2022-12-01T16:28:53;6.40;99.90
14099;DHT22;7126;48.458;7.930;2022-12-01T16:31:19;6.40;99.90
14099;DHT22;7126;48.458;7.930;2022-12-01T16:33:45;6.40;99.90
14099;DHT22;7126;48.458;7.930;2022-12-01T16:36:11;6.40;99.90
14099;DHT22;7126;48.458;7.930;2022-12-01T16:38:38;6.40;99.90
14099;DHT22;7126;48.458;7.930;2022-12-01T16:41:15;6.40;99.90
14099;DHT22;7126;48.458;7.930;2022-12-01T16:43:41;6.40;99.90
14099;DHT22;7126;48.458;7.930;2022-12-01T16:46:10;6.40;99.90
14099;DHT22;7126;48.458;7.930;2022-12-01T16:48:37;6.40;99.90
14099;DHT22;7126;48.458;7.930;2022-12-01T16:51:03;6.40;99.90
14099;DHT22;7126;48.458;7.930;2022-12-01T16:53:30;6.40;99.90
14099;DHT22;7126;48.458;7.930;2022-12-01T16:55:58;6.40;99.90
14099;DHT22;7126;48.458;7.930;2022-12-01T16:58:24;6.40;99.90
14099;DHT22;7126;48.458;7.930;2022-12-01T17:00:50;6.40;99.90
14099;DHT22;7126;48.458;7.930;2022-12-01T17:03:24;6.40;99.90
14099;DHT22;7126;48.458;7.930;2022-12-01T17:05:51;6.40;99.90
14099;DHT22;7126;48.458;7.930;2022-12-01T17:08:18;6.40;99.90
14099;DHT22;7126;48.458;7.930;2022-12-01T17:10:46;6.30;99.90
14099;DHT22;7126;48.458;7.930;2022-12-01T17:13:13;6.40;99.90
14099;DHT22;7126;48.458;7.930;2022-12-01T17:15:44;6.40;99.90
14099;DHT22;7126;48.458;7.930;2022-12-01T17:18:10;6.40;99.90
14099;DHT22;7126;48.458;7.930;2022-12-01T17:20:36;6.40;99.90
14099;DHT22;7126;48.458;7.930;2022-12-01T17:23:02;6.40;99.90
14099;DHT22;7126;48.458;7.930;2022-12-01T17:25:29;6.40;99.90
14099;DHT22;7126;48.458;7.930;2022-12-01T17:27:54;6.40;99.90
14099;DHT22;7126;48.458;7.930;2022-12-01T17:30:20;6.40;99.90
14099;DHT22;7126;48.458;7.930;2022-12-01T17:32:46;6.40;99.90
14099;DHT22;7126;48.458;7.930;2022-12-01T17:35:12;6.50;99.90
14099;DHT22;7126;48.458;7.930;2022-12-01T17:37:37;6.50;99.90
14099;DHT22;7126;48.458;7.930;2022-12-01T17:40:04;6.50;99.90
14099;DHT22;7126;48.458;7.930;2022-12-01T17:42:32;6.50;99.90
14099;DHT22;7126;48.458;7.930;2022-12-01T17:44:58;6.50;99.90
14099;DHT22;7126;48.458;7.930;2022-12-01T17:47:23;6.50;99.90
14099;DHT22;7126;48.458;7.930;2022-12-01T17:49:49;6.50;99.90
14099;DHT22;7126;48.458;7.930;2022-12-01T17:52:15;6.50;99.90
14099;DHT22;7126;48.458;7.930;2022-12-01T17:54:40;6.50;99.90
14099;DHT22;7126;48.458;7.930;2022-12-01T17:57:06;6.50;99.90
14099;DHT22;7126;48.458;7.930;2022-12-01T17:59:32;6.50;99.90
14099;DHT22;7126;48.458;7.930;2022-12-01T18:01:58;6.50;99.90
14099;DHT22;7126;48.458;7.930;2022-12-01T18:04:24;6.50;99.90
14099;DHT22;7126;48.458;7.930;2022-12-01T18:06:49;6.50;99.90
14099;DHT22;7126;48.458;7.930;2022-12-01T18:09:15;6.40;99.90
14099;DHT22;7126;48.458;7.930;2022-12-01T18:11:41;6.40;99.90
14099;DHT22;7126;48.458;7.930;2022-12-01T18:14:06;6.30;99.90
14099;DHT22;7126;48.458;7.930;2022-12-01T18:16:32;6.40;99.90
14099;DHT22;7126;48.458;7.930;2022-12-01T18:18:59;6.40;99.90
14099;DHT22;7126;48.458;7.930;2022-12-01T18:21:26;6.40;99.90
14099;DHT22;7126;48.458;7.930;2022-12-01T18:23:55;6.30;99.90
14099;DHT22;7126;48.458;7.930;2022-12-01T18:26:22;6.30;99.90
14099;DHT22;7126;48.458;7.930;2022-12-01T18:29:02;6.30;99.90
14099;DHT22;7126;48.458;7.930;2022-12-01T18:31:29;6.40;99.90
14099;DHT22;7126;48.458;7.930;2022-12-01T18:33:57;6.40;99.90
14099;DHT22;7126;48.458;7.930;2022-12-01T18:36:24;6.40;99.90
14099;DHT22;7126;48.458;7.930;2022-12-01T18:38:50;6.40;99.90
14099;DHT22;7126;48.458;7.930;2022-12-01T18:41:17;6.40;99.90
14099;DHT22;7126;48.458;7.930;2022-12-01T18:43:43;6.40;99.90